Latest Weather Observations for Cobar

IDN60801

Issued at 9:32 pm EDT Monday 20 February 2017 (issued every 30 minutes, with the page automatically refreshed every 10 minutes)

About weather observations | Map of weather stations | Latest weather observations for NSW | Other Formats
Station Details ID: 048027 Name: COBAR MO Lat: -31.48 Lon: 145.83 Height: 260.0 m
Data from the previous 72 hours. | See also: Recent months at Cobar
Date/Time
EDT
Temp
°C
App
Temp
°C
Dew
Point
°C
Rel
Hum
%
Delta-T
°C
Wind Press
QNH
hPa
Press
MSL
hPa
Rain since
9am
mm
Dir  Spd
km/h
Gust
km/h
Spd
kts
Gust
kts
20/09:30pm 20.7 16.8 -1.8 22 9.8 SSW 9 15 5 8 1016.8 1015.2 0.0
20/09:00pm 21.4 17.2 -1.2 22 10.0 SSW 11 15 6 8 1016.2 1014.7 0.0
20/08:30pm 21.5 17.6 -1.7 21 10.2 SW 9 11 5 6 1015.6 1014.0 0.0
20/08:00pm 22.6 18.7 -1.5 20 10.7 SW 9 13 5 7 1015.0 1013.4 0.0
20/07:30pm 23.7 19.0 -2.0 18 11.4 SSW 13 17 7 9 1014.5 1012.9 0.0
20/07:00pm 25.0 19.9 -1.7 17 12.1 SW 15 20 8 11 1014.0 1012.4 0.0
20/06:30pm 25.9 21.7 -1.0 17 12.4 SSW 11 20 6 11 1013.7 1012.1 0.0
20/06:00pm 25.9 20.5 -1.0 17 12.4 SW 17 26 9 14 1013.6 1012.0 0.0
20/05:30pm 25.6 20.5 -2.1 16 12.5 SW 15 30 8 16 1013.4 1011.8 0.0
20/05:00pm 25.4 19.6 0.1 19 11.9 SSW 20 33 11 18 1013.6 1012.0 0.0
20/04:30pm 25.7 20.8 -0.4 18 12.1 SW 15 28 8 15 1013.7 1012.1 0.0
20/04:00pm 25.5 19.6 -0.5 18 12.1 WSW 20 37 11 20 1013.9 1012.3 0.0
20/03:30pm 24.4 19.3 0.7 21 11.1 SW 17 26 9 14 1014.1 1012.5 0.0
20/03:00pm 25.4 19.7 0.8 20 11.7 WSW 20 28 11 15 1014.3 1012.7 0.0
20/02:30pm 24.3 20.2 2.5 24 10.6 SSW 13 35 7 19 1014.4 1012.8 0.0
20/02:00pm 23.5 18.4 2.9 26 10.0 WSW 19 33 10 18 1014.6 1013.0 0.0
20/01:30pm 22.6 17.7 2.1 26 9.8 SW 17 28 9 15 1015.0 1013.4 0.0
20/01:00pm 22.4 17.2 2.5 27 9.5 SW 19 32 10 17 1015.4 1013.8 0.0
20/12:30pm 23.1 19.3 4.1 29 9.4 W 13 22 7 12 1015.6 1014.0 0.0
20/12:00pm 21.6 17.8 3.8 31 8.7 SSW 13 20 7 11 1016.0 1014.5 0.0
20/11:30am 21.0 16.4 3.7 32 8.4 SW 17 28 9 15 1016.2 1014.7 0.0
20/11:00am 20.4 16.2 4.0 34 8.0 S 15 24 8 13 1016.4 1014.8 0.0
20/10:30am 19.6 15.5 4.5 37 7.4 S 15 24 8 13 1016.2 1014.7 0.0
20/10:00am 18.5 14.6 5.4 42 6.5 S 15 26 8 14 1016.1 1014.6 0.0
20/09:30am 18.2 14.8 5.8 44 6.1 S 13 20 7 11 1016.1 1014.6 0.0
20/09:00am 16.7 12.8 5.3 47 5.5 S 15 19 8 10 1016.0 1014.5 0.0
20/08:30am 15.9 12.6 4.3 46 5.5 SSW 11 15 6 8 1015.7 1014.1 0.0
20/08:00am 14.1 10.8 2.4 45 5.2 SSW 9 13 5 7 1015.3 1013.7 0.0
20/07:30am 12.6 9.6 1.9 48 4.7 SSW 7 9 4 5 1015.0 1013.4 0.0
20/07:00am 12.2 8.7 1.5 48 4.6 SSW 9 13 5 7 1014.8 1013.2 0.0
20/06:30am 12.5 8.7 1.5 47 4.8 SSW 11 15 6 8 1014.5 1012.9 0.0
20/06:00am 12.6 9.1 1.3 46 4.9 SW 9 13 5 7 1014.0 1012.4 0.0
20/05:30am 13.2 9.3 1.2 44 5.2 WSW 11 13 6 7 1013.9 1012.3 0.0
20/05:00am 12.1 8.5 0.5 45 4.9 W 9 11 5 6 1013.7 1012.1 0.0
20/04:30am 11.9 7.4 -0.3 43 5.0 W 13 15 7 8 1013.4 1011.8 0.0
20/04:00am 12.6 8.9 -0.3 41 5.4 W 9 13 5 7 1013.4 1011.8 0.0
20/03:30am 14.7 10.7 0.2 37 6.2 WSW 11 11 6 6 1013.4 1011.8 0.0
20/03:00am 13.7 10.0 -0.3 38 5.9 W 9 11 5 6 1013.4 1011.8 0.0
20/02:30am 14.7 11.0 -0.2 36 6.3 SW 9 9 5 5 1013.4 1011.8 0.0
20/02:00am 14.6 10.8 -0.7 35 6.4 SW 9 11 5 6 1013.5 1011.9 0.0
20/01:30am 15.1 10.9 -1.0 33 6.8 SW 11 15 6 8 1013.6 1012.0 0.0
20/01:00am 16.2 11.6 -0.9 31 7.3 SW 13 19 7 10 1013.6 1012.0 0.0
20/12:30am 15.5 11.5 -2.0 30 7.2 WSW 9 11 5 6 1013.3 1011.7 0.0
20/12:00am 16.1 12.1 -1.9 29 7.5 WSW 9 13 5 7 1013.3 1011.7 0.0
 
Date/Time
EDT
Temp
°C
App
Temp
°C
Dew
Point
°C
Rel
Hum
%
Delta-T
°C
Wind Press
QNH
hPa
Press
MSL
hPa
Rain since
9am
mm
Dir  Spd
km/h
Gust
km/h
Spd
kts
Gust
kts
19/11:30pm 16.1 12.1 -1.9 29 7.5 WSW 9 11 5 6 1013.2 1011.6 0.0
19/11:00pm 17.0 13.1 -1.6 28 7.9 WSW 9 11 5 6 1013.1 1011.5 0.0
19/10:30pm 17.6 13.7 -1.6 27 8.1 WSW 9 11 5 6 1013.0 1011.4 0.0
19/10:00pm 18.9 14.2 -1.5 25 8.8 SW 13 17 7 9 1012.8 1011.2 0.0
19/09:30pm 19.3 14.7 -1.2 25 8.9 WSW 13 20 7 11 1012.5 1010.8 0.0
19/09:00pm 20.0 15.3 -1.7 23 9.4 WSW 13 17 7 9 1011.9 1010.3 0.0
19/08:30pm 21.0 15.9 -2.1 21 10.0 WSW 15 19 8 10 1011.4 1009.8 0.0
19/08:00pm 21.8 15.9 -2.1 20 10.4 WSW 19 30 10 16 1011.1 1009.5 0.0
19/07:30pm 22.6 16.7 -2.2 19 10.9 W 19 30 10 16 1010.7 1009.1 0.0
19/07:00pm 23.4 16.9 -2.2 18 11.3 WSW 22 35 12 19 1010.5 1008.9 0.0
19/06:30pm 24.2 18.1 -2.4 17 11.8 W 20 32 11 17 1010.3 1008.7 0.0
19/06:00pm 24.4 18.4 -1.4 18 11.7 SW 20 32 11 17 1010.3 1008.7 0.0
19/05:30pm 25.1 19.4 -0.9 18 11.9 WSW 19 28 10 15 1010.3 1008.7 0.0
19/05:00pm 24.5 18.8 -0.6 19 11.5 WSW 19 32 10 17 1010.3 1008.7 0.0
19/04:30pm 24.5 18.2 -1.3 18 11.7 WSW 22 30 12 16 1010.5 1008.9 0.0
19/04:00pm 24.2 18.5 -0.9 19 11.4 W 19 35 10 19 1010.7 1009.1 0.0
19/03:30pm 24.4 18.9 0.7 21 11.1 SSW 19 28 10 15 1011.0 1009.4 0.0
19/03:00pm 23.5 17.8 -0.7 20 11.0 WSW 19 30 10 16 1011.5 1009.9 0.0
19/02:30pm 23.3 17.1 -0.2 21 10.8 WSW 22 37 12 20 1011.8 1010.2 0.0
19/02:00pm 23.2 18.7 -0.3 21 10.7 SW 13 22 7 12 1012.1 1010.5 0.0
19/01:30pm 23.3 17.2 0.4 22 10.6 WSW 22 37 12 20 1012.4 1010.7 0.0
19/01:00pm 23.1 17.3 -0.4 21 10.7 WSW 20 35 11 19 1012.7 1011.1 0.0
19/12:30pm 22.2 16.6 0.1 23 10.1 SW 19 30 10 16 1013.0 1011.4 0.0
19/12:00pm 22.1 15.6 0.0 23 10.1 WSW 24 35 13 19 1013.3 1011.7 0.0
19/11:30am 22.0 16.5 0.5 24 9.9 SW 19 32 10 17 1013.6 1012.0 0.0
19/11:00am 21.0 15.9 0.8 26 9.3 SW 17 26 9 14 1013.7 1012.1 0.0
19/10:30am 19.8 15.5 0.8 28 8.6 SSW 13 20 7 11 1013.7 1012.1 0.0
19/10:00am 19.7 15.4 1.2 29 8.5 S 13 22 7 12 1013.7 1012.1 0.0
19/09:30am 18.5 13.5 1.1 31 7.9 S 17 24 9 13 1013.6 1012.0 0.0
19/09:00am 17.3 13.0 1.3 34 7.2 S 13 19 7 10 1013.6 1012.0 0.0
19/08:30am 15.7 11.0 1.1 37 6.4 S 15 20 8 11 1013.6 1012.0 0.0
19/08:00am 14.2 10.4 1.5 42 5.6 SSW 11 17 6 9 1013.4 1011.8 0.0
19/07:30am 12.6 9.2 1.6 47 4.8 SW 9 13 5 7 1013.1 1011.5 0.0
19/07:00am 12.0 8.9 1.3 48 4.6 SW 7 9 4 5 1012.7 1011.1 0.0
19/06:30am 12.5 9.4 1.5 47 4.8 SW 7 11 4 6 1012.1 1010.5 0.0
19/06:00am 12.7 9.2 1.4 46 4.9 SW 9 11 5 6 1011.8 1010.2 0.0
19/05:30am 13.5 10.6 1.2 43 5.3 SW 6 9 3 5 1011.6 1010.0 0.0
19/05:00am 13.9 11.0 1.2 42 5.5 SW 6 9 3 5 1011.2 1009.6 0.0
19/04:30am 14.3 10.8 1.2 41 5.7 SW 9 13 5 7 1011.1 1009.5 0.0
19/04:00am 14.7 10.8 1.3 40 5.9 SW 11 13 6 7 1011.2 1009.6 0.0
19/03:30am 15.6 11.0 1.4 38 6.3 SW 15 20 8 11 1011.3 1009.7 0.0
19/03:00am 15.5 11.6 1.3 38 6.3 SW 11 13 6 7 1011.6 1010.0 0.0
19/02:30am 16.8 13.2 0.9 34 7.1 SSW 9 13 5 7 1011.7 1010.1 0.0
19/02:00am 17.7 13.8 1.2 33 7.4 SSW 11 15 6 8 1011.9 1010.3 0.0
19/01:30am 18.3 14.0 0.9 31 7.8 SSW 13 20 7 11 1012.1 1010.5 0.0
19/01:00am 18.7 14.4 1.2 31 7.9 S 13 20 7 11 1012.0 1010.4 0.0
19/12:30am 19.2 14.2 1.2 30 8.2 SSW 17 28 9 15 1011.9 1010.3 0.0
19/12:00am 19.8 14.2 1.3 29 8.5 SSW 20 35 11 19 1011.9 1010.3 0.0
 
Date/Time
EDT
Temp
°C
App
Temp
°C
Dew
Point
°C
Rel
Hum
%
Delta-T
°C
Wind Press
QNH
hPa
Press
MSL
hPa
Rain since
9am
mm
Dir  Spd
km/h
Gust
km/h
Spd
kts
Gust
kts
18/11:30pm 20.7 15.3 1.1 27 9.0 SSW 19 35 10 19 1011.3 1009.7 0.0
18/11:00pm 21.2 15.6 1.0 26 9.3 SSW 20 28 11 15 1011.0 1009.4 0.0
18/10:30pm 21.7 15.3 0.8 25 9.6 SSW 24 35 13 19 1010.8 1009.2 0.0
18/10:00pm 22.4 16.8 0.9 24 10.0 SSW 20 30 11 16 1010.4 1008.8 0.0
18/09:30pm 23.0 17.4 0.2 22 10.5 SSW 19 33 10 18 1010.0 1008.4 0.0
18/09:00pm 23.9 17.9 0.9 22 10.8 SSW 22 37 12 20 1009.4 1007.8 0.0
18/08:30pm 24.6 18.4 2.1 23 10.9 SSW 24 33 13 18 1008.7 1007.0 0.0
18/08:00pm 25.2 19.9 3.2 24 10.9 SW 20 33 11 18 1008.4 1006.7 0.0
18/07:30pm 26.1 20.6 4.0 24 11.2 SSW 22 35 12 19 1008.1 1006.5 0.0
18/07:00pm 27.3 21.9 4.4 23 11.8 SSW 22 30 12 16 1007.9 1006.3 0.0
18/06:30pm 27.8 23.0 5.4 24 11.7 SSW 20 37 11 20 1007.6 1006.0 0.0
18/06:00pm 28.2 23.0 5.7 24 11.9 SW 22 32 12 17 1007.7 1006.1 0.0
18/05:30pm 29.0 24.4 6.4 24 12.1 SW 20 30 11 16 1007.9 1006.3 0.0
18/05:00pm 28.8 24.3 6.2 24 12.1 SSW 19 33 10 18 1008.0 1006.4 0.0
18/04:30pm 29.7 24.7 6.4 23 12.5 SSW 22 32 12 17 1008.2 1006.6 0.0
18/04:00pm 29.4 24.5 6.7 24 12.3 SSW 22 33 12 18 1008.2 1006.6 0.0
18/03:30pm 29.3 25.0 7.2 25 12.0 SSW 19 26 10 14 1008.4 1006.7 0.0
18/03:00pm 28.9 23.2 6.9 25 11.9 SW 26 35 14 19 1008.7 1007.0 0.0
18/02:30pm 29.1 24.2 7.1 25 11.9 SW 22 39 12 21 1008.7 1007.0 0.0
18/02:00pm 28.3 23.9 7.5 27 11.3 SSW 20 33 11 18 1008.9 1007.2 0.0
18/01:30pm 28.5 24.4 8.7 29 11.0 SSW 20 43 11 23 1008.9 1007.2 0.0
18/01:00pm 27.5 23.2 7.9 29 10.7 SSW 20 37 11 20 1009.1 1007.4 0.0
18/12:30pm 27.2 23.2 9.1 32 10.1 SSW 20 32 11 17 1009.4 1007.8 0.0
18/12:00pm 26.3 21.5 8.8 33 9.6 SSW 24 35 13 19 1009.6 1008.0 0.0
18/11:30am 26.3 21.9 8.8 33 9.6 SSW 22 37 12 20 1009.8 1008.2 0.0
18/11:00am 25.7 21.6 7.8 32 9.7 S 19 30 10 16 1009.8 1008.2 0.0
18/10:30am 24.7 19.9 7.4 33 9.2 SSW 22 33 12 18 1010.1 1008.5 0.0
18/10:00am 23.6 19.1 6.8 34 8.8 S 20 30 11 16 1010.1 1008.5 0.0
18/09:30am 23.6 18.3 6.8 34 8.8 S 24 35 13 19 1010.0 1008.4 0.0
18/09:00am 22.9 18.3 6.6 35 8.5 S 20 32 11 17 1009.7 1008.1 0.0
18/08:30am 22.7 18.0 6.0 34 8.6 SSW 20 26 11 14 1009.6 1008.0 0.0
18/08:00am 22.7 18.1 5.6 33 8.7 S 19 30 10 16 1009.4 1007.8 0.0
18/07:30am 22.4 18.0 4.9 32 8.8 SSW 17 24 9 13 1008.9 1007.2 0.0
18/07:00am 22.7 18.3 4.7 31 9.0 S 17 28 9 15 1008.6 1006.9 0.0
18/06:30am 23.1 19.0 4.1 29 9.4 SSW 15 22 8 12 1008.1 1006.5 0.0
18/06:00am 23.6 19.0 3.5 27 9.9 S 17 30 9 16 1007.8 1006.2 0.0
18/05:30am 24.0 18.9 3.3 26 10.2 S 19 26 10 14 1007.6 1006.0 0.0
18/05:00am 24.5 19.8 3.2 25 10.5 S 17 26 9 14 1007.2 1005.6 0.0
18/04:30am 24.8 20.2 3.5 25 10.6 S 17 24 9 13 1007.2 1005.6 0.0
18/04:00am 25.2 20.4 4.9 27 10.4 S 19 28 10 15 1007.1 1005.5 0.0
18/03:30am 25.9 22.4 7.0 30 10.1 S 15 24 8 13 1007.4 1005.8 0.0
18/03:00am 26.3 22.6 7.8 31 10.0 S 17 28 9 15 1007.7 1006.1 0.0
18/02:30am 27.2 23.8 9.1 32 10.1 S 17 28 9 15 1007.7 1006.1 0.0
18/02:00am 27.7 24.6 9.0 31 10.4 S 15 24 8 13 1007.5 1005.9 0.0
18/01:30am 28.5 26.3 9.2 30 10.8 S 11 17 6 9 1007.5 1005.9 0.0
18/01:00am 29.2 26.8 8.8 28 11.4 SSE 11 17 6 9 1007.5 1005.9 0.0
18/12:30am 29.6 26.8 8.6 27 11.7 S 13 20 7 11 1007.7 1006.1 0.0
18/12:00am 29.9 26.6 6.5 23 12.7 SSW 13 17 7 9 1007.8 1006.2 0.0
 
Date/Time
EDT
Temp
°C
App
Temp
°C
Dew
Point
°C
Rel
Hum
%
Delta-T
°C
Wind Press
QNH
hPa
Press
MSL
hPa
Rain since
9am
mm
Dir  Spd
km/h
Gust
km/h
Spd
kts
Gust
kts
17/11:30pm 30.7 27.1 5.2 20 13.5 S 13 19 7 10 1007.6 1006.0 0.0
17/11:00pm 30.9 27.1 3.8 18 14.1 SSW 13 17 7 9 1007.8 1006.2 0.0
17/10:30pm 31.0 28.0 3.9 18 14.1 SSW 9 13 5 7 1007.7 1006.1 0.0
17/10:00pm 31.3 28.2 3.4 17 14.4 SW 9 13 5 7 1007.7 1006.1 0.0

Other Formats:

Comma delimited format used in spreadsheet applications
http://www.bom.gov.au/fwo/IDN60801/IDN60801.94711.axf

JavaScript Object Notation format (JSON) in row-major order
http://www.bom.gov.au/fwo/IDN60801/IDN60801.94711.json